Darstellungsparameter: Aktuell verwendete Einstellungen:
Skalierung der Graphiken ... ?
xyx+y,   Skalierungsfaktor:      Skalierung: Modus: x, Faktor: 1
Darstellungszeitraum ... ?
Vom - - bis: - -   Zeitraum: 11.10.2010 - 13.10.2010
Min/Max/Avg-Anzeige ... ?
Zeige MMA aktuell
Zeige MMA Monat
Zeige MMA alles
Zeige --A aktuell
Zeige --A Monat
Zeige --A alles
Keine MMA-Anzeige
MMA:
Average (ber die Originaldaten)
MMA-Basis: 11.10.2010 - 13.10.2010
Quicknavigation für Darstellung... ?
Tage:      1T, 2T, 3T, 5T -1T -2T -3T -5T +1T +2T +3T +5T
Wochen: 1W, 2W, 3W -1W -2W -3W +1W +2W +3W
Monate: 1M, 3M, 6M -1M -3M -6M +1M +3M +6M
Jahre:    1J, 3J, 5J, 10J -1J -3J -5J -10J +1J +3J +5J +10J
Nutze für die Darstellung ... ?
Originaldaten oder Mittelwerte auf ...
Stundenbasis Tagesbasis Wochenbasis
Monatsbasis Jahresbasis      Datenbasis: Original-Daten
Darstellen als:
Statistik (Auto) Statistik J:M      Darstellung:
Zur Graphik,    zurück zur Übersicht aller Sensoren.
 
Tabellarische Datenbersicht: ?
 
Sensor: Nr:Datum:Temp:Abs-Feuchte:Windchill:Wind:
Aussen-T/F 1 11-10-2010 00:11:03 10.2 C 4.85 g/m*3 10.2 C 0 km/h
2 11-10-2010 00:23:03 10 C 4.89 g/m*3 10 C 0 km/h
3 11-10-2010 00:35:03 9.9 C 4.95 g/m*3 9.9 C 0 km/h
4 11-10-2010 00:47:03 10 C 4.79 g/m*3 10 C 0 km/h
5 11-10-2010 00:59:03 9.8 C 4.92 g/m*3 9.8 C 0 km/h
6 11-10-2010 01:11:03 9.6 C 4.95 g/m*3 9.6 C 0 km/h
7 11-10-2010 01:23:03 9.5 C 4.92 g/m*3 9.5 C 0 km/h
8 11-10-2010 01:35:03 9.4 C 4.88 g/m*3 9.4 C 0 km/h
9 11-10-2010 01:47:03 9.3 C 4.94 g/m*3 9.3 C 0 km/h
10 11-10-2010 01:59:03 9.4 C 4.88 g/m*3 9.4 C 0 km/h
11 11-10-2010 02:11:03 9.4 C 4.79 g/m*3 9.4 C 0 km/h
12 11-10-2010 02:23:03 9.4 C 4.88 g/m*3 9.4 C 0 km/h
13 11-10-2010 02:35:03 9 C 4.85 g/m*3 9 C 0 km/h
14 11-10-2010 02:47:04 8.9 C 4.91 g/m*3 8.9 C 0 km/h
15 11-10-2010 02:59:04 8.7 C 4.93 g/m*3 8.7 C 0 km/h
16 11-10-2010 03:11:04 8.5 C 4.95 g/m*3 8.5 C 0 km/h
17 11-10-2010 03:23:04 8.3 C 4.97 g/m*3 8.3 C 0 km/h
18 11-10-2010 03:35:04 8.2 C 5.02 g/m*3 8.2 C 0 km/h
19 11-10-2010 03:47:04 8.1 C 4.99 g/m*3 8.1 C 0 km/h
20 11-10-2010 03:59:04 8.1 C 4.99 g/m*3 8.1 C 0 km/h
21 11-10-2010 04:11:04 7.7 C 5.03 g/m*3 7.7 C 0 km/h
22 11-10-2010 04:23:04 7.5 C 5.12 g/m*3 7.5 C 0 km/h
23 11-10-2010 04:35:04 7.5 C 5.12 g/m*3 7.5 C 0 km/h
24 11-10-2010 04:47:04 7.6 C 5.16 g/m*3 7.6 C 0 km/h
25 11-10-2010 04:59:04 7.6 C 5.08 g/m*3 7.6 C 0 km/h
Sensor: Nr:Datum:Temp:Abs-Feuchte:Windchill:Wind:
Aussen-T/F 26 11-10-2010 05:11:04 7.1 C 5.07 g/m*3 7.1 C 0 km/h
27 11-10-2010 05:23:04 7 C 5.27 g/m*3 7 C 0 km/h
28 11-10-2010 05:35:04 6.6 C 5.28 g/m*3 6.6 C 0 km/h
29 11-10-2010 05:47:04 6.3 C 5.26 g/m*3 6.3 C 0 km/h
30 11-10-2010 05:59:04 6.2 C 5.29 g/m*3 6.2 C 0 km/h
31 11-10-2010 06:11:04 6 C 5.23 g/m*3 6 C 0 km/h
32 11-10-2010 06:23:04 5.8 C 5.23 g/m*3 5.8 C 0 km/h
33 11-10-2010 06:35:04 5.7 C 5.34 g/m*3 5.7 C 0 km/h
34 11-10-2010 06:47:04 5.6 C 5.37 g/m*3 5.6 C 0 km/h
35 11-10-2010 06:59:05 5.5 C 5.41 g/m*3 5.5 C 0 km/h
36 11-10-2010 07:11:02 5.4 C 5.37 g/m*3 5.4 C 0 km/h
37 11-10-2010 07:23:02 5.3 C 5.41 g/m*3 5.3 C 0 km/h
38 11-10-2010 07:35:03 5.3 C 5.41 g/m*3 5.3 C 0 km/h
39 11-10-2010 07:47:02 5.1 C 5.34 g/m*3 5.1 C 0 km/h
40 11-10-2010 07:59:02 5 C 5.3 g/m*3 5 C 0 km/h
41 11-10-2010 08:11:02 4.9 C 5.33 g/m*3 4.9 C 0 km/h
42 11-10-2010 08:23:02 4.9 C 5.4 g/m*3 4.9 C 0 km/h
43 11-10-2010 08:35:02 5 C 5.37 g/m*3 5 C 0 km/h
44 11-10-2010 08:47:02 5 C 5.44 g/m*3 5 C 0 km/h
45 11-10-2010 08:59:02 5 C 5.44 g/m*3 5 C 0 km/h
46 11-10-2010 09:11:02 5.3 C 5.61 g/m*3 5.3 C 0 km/h
47 11-10-2010 09:23:02 5.4 C 5.65 g/m*3 5.4 C 0 km/h
48 11-10-2010 09:35:02 5.6 C 5.73 g/m*3 5.6 C 0 km/h
49 11-10-2010 09:47:01 5.8 C 5.73 g/m*3 5.8 C 0 km/h
50 11-10-2010 09:59:01 5.9 C 5.77 g/m*3 5.9 C 0 km/h
Sensor: Nr:Datum:Temp:Abs-Feuchte:Windchill:Wind:
Aussen-T/F 51 11-10-2010 10:11:01 6.1 C 5.77 g/m*3 6.1 C 0 km/h
52 11-10-2010 10:23:01 6.5 C 6 g/m*3 6.5 C 0 km/h
53 11-10-2010 10:35:01 7.1 C 6.16 g/m*3 7.1 C 0 km/h
54 11-10-2010 10:47:02 7.7 C 6.32 g/m*3 7.7 C 0 km/h
55 11-10-2010 10:59:02 8.2 C 6.28 g/m*3 8.2 C 0 km/h
56 11-10-2010 11:11:02 8.7 C 6.31 g/m*3 8.7 C 0 km/h
57 11-10-2010 11:23:03 9 C 6.26 g/m*3 9 C 0 km/h
58 11-10-2010 11:35:02 9.4 C 6.33 g/m*3 9.4 C 0 km/h
59 11-10-2010 11:47:01 9.9 C 6.44 g/m*3 9.9 C 0 km/h
60 11-10-2010 11:59:01 10.3 C 6.42 g/m*3 10.3 C 0 km/h
61 11-10-2010 12:11:02 10.7 C 6.38 g/m*3 10.7 C 0 km/h
62 11-10-2010 12:23:01 11.3 C 6.43 g/m*3 11.3 C 0 km/h
63 11-10-2010 12:35:01 11.6 C 6.44 g/m*3 11.6 C 0 km/h
64 11-10-2010 12:47:01 12 C 6.39 g/m*3 12 C 0 km/h
65 11-10-2010 12:59:01 12.5 C 6.6 g/m*3 12.5 C 0 km/h
66 11-10-2010 13:11:01 13.8 C 6.2 g/m*3 13.8 C 0 km/h
67 11-10-2010 13:23:02 14.5 C 6.09 g/m*3 14.5 C 0 km/h
68 11-10-2010 13:35:01 14.9 C 5.99 g/m*3 14.9 C 0 km/h
69 11-10-2010 13:47:02 15.4 C 5.65 g/m*3 15.4 C 0 km/h
70 11-10-2010 13:59:02 16 C 5.45 g/m*3 16 C 0 km/h
71 11-10-2010 14:11:02 16.7 C 4.97 g/m*3 16.7 C 0 km/h
72 11-10-2010 14:23:02 17.1 C 5.82 g/m*3 17.1 C 0 km/h
73 11-10-2010 14:35:01 17.4 C 5.48 g/m*3 17.4 C 0 km/h
74 11-10-2010 14:47:01 17.9 C 5.5 g/m*3 17.9 C 0 km/h
75 11-10-2010 14:59:02 18.3 C 5.47 g/m*3 18.3 C 0 km/h
Sensor: Nr:Datum:Temp:Abs-Feuchte:Windchill:Wind:
Aussen-T/F 76 11-10-2010 15:11:01 18.8 C 5.31 g/m*3 18.8 C 0 km/h
77 11-10-2010 15:23:01 19.4 C 5.51 g/m*3 19.4 C 0 km/h
78 11-10-2010 15:35:01 19.8 C 5.12 g/m*3 19.8 C 0 km/h
79 11-10-2010 15:47:01 20.3 C 4.57 g/m*3 20.3 C 0 km/h
80 11-10-2010 15:59:01 20.6 C 4.65 g/m*3 20.6 C 0 km/h
81 11-10-2010 16:11:02 20.8 C 4.71 g/m*3 20.8 C 0 km/h
82 11-10-2010 16:23:01 21.1 C 4.97 g/m*3 21.1 C 0 km/h
83 11-10-2010 16:35:01 21.2 C 4.63 g/m*3 21.2 C 0 km/h
84 11-10-2010 16:47:01 21 C 4.58 g/m*3 21 C 0 km/h
85 11-10-2010 16:59:01 20.7 C 4.14 g/m*3 20.7 C 0 km/h
86 11-10-2010 17:11:02 20.5 C 3.74 g/m*3 20.5 C 0 km/h
87 11-10-2010 17:23:01 20 C 3.63 g/m*3 20 C 0 km/h
88 11-10-2010 17:35:01 19.5 C 3.36 g/m*3 19.5 C 0 km/h
89 11-10-2010 17:47:01 19.1 C 3.44 g/m*3 19.1 C 0 km/h
90 11-10-2010 17:59:01 18.7 C 3.84 g/m*3 18.7 C 0 km/h
91 11-10-2010 18:11:01 18 C 4.45 g/m*3 18 C 0 km/h
92 11-10-2010 18:23:02 16.9 C 4.31 g/m*3 16.9 C 0 km/h
93 11-10-2010 18:35:01 15.7 C 3.88 g/m*3 15.7 C 0 km/h
94 11-10-2010 18:47:03 15.1 C 3.61 g/m*3 15.1 C 0 km/h
95 11-10-2010 18:59:03 14.9 C 3.7 g/m*3 14.9 C 0 km/h
96 11-10-2010 19:11:02 14.4 C 3.71 g/m*3 14.4 C 0 km/h
97 11-10-2010 19:23:02 13.7 C 4.14 g/m*3 13.7 C 0 km/h
98 11-10-2010 19:35:02 13.2 C 4.48 g/m*3 13.2 C 0 km/h
99 11-10-2010 19:47:02 12.5 C 4.51 g/m*3 12.5 C 0 km/h
100 11-10-2010 19:59:03 12.1 C 4.72 g/m*3 12.1 C 0 km/h
Sensor: Nr:Datum:Temp:Abs-Feuchte:Windchill:Wind:
Aussen-T/F 101 11-10-2010 20:11:02 11.9 C 4.77 g/m*3 11.9 C 0 km/h
102 11-10-2010 20:23:02 11.8 C 4.84 g/m*3 11.8 C 0 km/h
103 11-10-2010 20:35:02 11.3 C 4.79 g/m*3 11.3 C 0 km/h
104 11-10-2010 20:47:01 11 C 4.7 g/m*3 11 C 0 km/h
105 11-10-2010 20:59:01 10.6 C 4.98 g/m*3 10.6 C 0 km/h
106 11-10-2010 21:11:02 10.3 C 5.08 g/m*3 10.3 C 0 km/h
107 11-10-2010 21:23:01 10.1 C 4.82 g/m*3 10.1 C 0 km/h
108 11-10-2010 21:35:02 9.9 C 4.95 g/m*3 9.9 C 0 km/h
109 11-10-2010 21:48:03 9.8 C 5.01 g/m*3 9.8 C 0 km/h
110 11-10-2010 22:00:03 9.6 C 4.95 g/m*3 9.6 C 0 km/h
111 11-10-2010 22:12:03 9.4 C 4.88 g/m*3 9.4 C 0 km/h
112 11-10-2010 22:24:03 9.3 C 4.76 g/m*3 9.3 C 0 km/h
113 11-10-2010 22:36:03 8.9 C 4.82 g/m*3 8.9 C 0 km/h
114 11-10-2010 22:48:03 8.8 C 4.79 g/m*3 8.8 C 0 km/h
115 11-10-2010 23:00:03 8.7 C 5.02 g/m*3 8.7 C 0 km/h
116 11-10-2010 23:12:04 8.4 C 4.84 g/m*3 8.4 C 0 km/h
117 11-10-2010 23:24:04 8.2 C 4.86 g/m*3 8.2 C 0 km/h
118 11-10-2010 23:36:04 8.1 C 4.83 g/m*3 8.1 C 0 km/h
119 11-10-2010 23:48:04 7.8 C 4.82 g/m*3 7.8 C 0 km/h
120 12-10-2010 00:00:04 7.4 C 4.93 g/m*3 7.4 C 0 km/h
121 12-10-2010 00:12:04 7.3 C 4.98 g/m*3 7.3 C 0 km/h
122 12-10-2010 00:24:04 7.2 C 4.95 g/m*3 7.2 C 0 km/h
123 12-10-2010 00:36:04 7.1 C 5.07 g/m*3 7.1 C 0 km/h
124 12-10-2010 00:48:04 6.8 C 5.12 g/m*3 6.8 C 0 km/h
125 12-10-2010 01:00:04 6.7 C 5.09 g/m*3 6.7 C 0 km/h
Sensor: Nr:Datum:Temp:Abs-Feuchte:Windchill:Wind:
Aussen-T/F 126 12-10-2010 01:12:04 6.5 C 5.1 g/m*3 6.5 C 0 km/h
127 12-10-2010 01:24:04 6.4 C 5.14 g/m*3 6.4 C 0 km/h
128 12-10-2010 01:36:04 6.3 C 5.18 g/m*3 6.3 C 0 km/h
129 12-10-2010 01:48:04 6.1 C 5.11 g/m*3 6.1 C 0 km/h
130 12-10-2010 02:00:04 6 C 5.15 g/m*3 6 C 0 km/h
131 12-10-2010 02:12:04 5.8 C 5.23 g/m*3 5.8 C 0 km/h
132 12-10-2010 02:24:04 5.8 C 5.3 g/m*3 5.8 C 0 km/h
133 12-10-2010 02:36:04 5.6 C 5.23 g/m*3 5.6 C 0 km/h
134 12-10-2010 02:48:04 5.5 C 5.27 g/m*3 5.5 C 0 km/h
135 12-10-2010 03:00:04 5.2 C 5.16 g/m*3 5.2 C 0 km/h
136 12-10-2010 03:12:04 5.3 C 5.41 g/m*3 5.3 C 0 km/h
137 12-10-2010 03:24:05 5.1 C 5.4 g/m*3 5.1 C 0 km/h
138 12-10-2010 03:36:05 4.9 C 5.33 g/m*3 4.9 C 0 km/h
139 12-10-2010 03:48:05 4.7 C 5.26 g/m*3 4.7 C 0 km/h
140 12-10-2010 04:00:05 4.6 C 5.29 g/m*3 4.6 C 0 km/h
141 12-10-2010 04:12:05 4.4 C 5.22 g/m*3 4.4 C 0 km/h
142 12-10-2010 04:24:05 4.5 C 5.39 g/m*3 4.5 C 0 km/h
143 12-10-2010 04:36:05 4.4 C 5.42 g/m*3 4.4 C 0 km/h
144 12-10-2010 04:48:05 4.2 C 5.35 g/m*3 4.2 C 0 km/h
145 12-10-2010 05:00:05 4.1 C 5.38 g/m*3 4.1 C 0 km/h
146 12-10-2010 05:12:05 4 C 5.34 g/m*3 4 C 0 km/h
147 12-10-2010 05:24:05 3.7 C 5.3 g/m*3 3.7 C 0 km/h
148 12-10-2010 05:36:05 3.6 C 5.26 g/m*3 3.6 C 0 km/h
149 12-10-2010 05:48:05 3.6 C 5.26 g/m*3 3.6 C 0 km/h
150 12-10-2010 06:00:05 3.6 C 5.26 g/m*3 3.6 C 0 km/h
Sensor: Nr:Datum:Temp:Abs-Feuchte:Windchill:Wind:
Aussen-T/F 151 12-10-2010 06:12:05 3.5 C 5.29 g/m*3 3.5 C 0 km/h
152 12-10-2010 06:24:05 3.4 C 5.25 g/m*3 3.4 C 0 km/h
153 12-10-2010 06:36:05 3.4 C 5.25 g/m*3 3.4 C 0 km/h
154 12-10-2010 06:48:02 3.4 C 5.25 g/m*3 3.4 C 0 km/h
155 12-10-2010 07:00:02 3.2 C 5.18 g/m*3 3.2 C 0 km/h
156 12-10-2010 07:12:03 3.1 C 5.15 g/m*3 3.1 C 0 km/h
157 12-10-2010 07:24:02 3 C 5.17 g/m*3 3 C 0 km/h
158 12-10-2010 07:36:02 2.8 C 5.16 g/m*3 2.8 C 0 km/h
159 12-10-2010 07:48:01 2.6 C 5.09 g/m*3 2.6 C 0 km/h
160 12-10-2010 08:00:01 2.7 C 5.13 g/m*3 2.7 C 0 km/h
161 12-10-2010 08:12:02 3.2 C 5.36 g/m*3 3.2 C 0 km/h
162 12-10-2010 08:24:02 3.6 C 5.57 g/m*3 3.6 C 0 km/h
163 12-10-2010 08:36:02 4 C 5.72 g/m*3 4 C 0 km/h
164 12-10-2010 08:48:02 4.3 C 5.84 g/m*3 4.3 C 0 km/h
165 12-10-2010 09:00:02 4.5 C 5.85 g/m*3 4.5 C 0 km/h
166 12-10-2010 09:12:02 4.7 C 5.93 g/m*3 4.7 C 0 km/h
167 12-10-2010 09:24:02 4.8 C 5.9 g/m*3 4.8 C 0 km/h
168 12-10-2010 09:36:02 5.2 C 5.99 g/m*3 5.2 C 0 km/h
169 12-10-2010 09:48:02 5.3 C 5.96 g/m*3 5.3 C 0 km/h
170 12-10-2010 10:00:02 5.3 C 5.89 g/m*3 5.3 C 0 km/h
171 12-10-2010 10:12:02 5.6 C 6.01 g/m*3 5.6 C 0 km/h
172 12-10-2010 10:24:02 5.7 C 6.05 g/m*3 5.7 C 0 km/h
173 12-10-2010 10:36:02 6 C 6.1 g/m*3 6 C 0 km/h
174 12-10-2010 10:48:02 6.5 C 6.3 g/m*3 6.5 C 0 km/h
175 12-10-2010 11:00:02 6.5 C 6.3 g/m*3 6.5 C 0 km/h
Sensor: Nr:Datum:Temp:Abs-Feuchte:Windchill:Wind:
Aussen-T/F 176 12-10-2010 11:12:02 6.6 C 6.34 g/m*3 6.6 C 0 km/h
177 12-10-2010 11:24:02 7 C 6.43 g/m*3 7 C 0 km/h
178 12-10-2010 11:36:02 7.7 C 6.41 g/m*3 7.7 C 0 km/h
179 12-10-2010 11:48:02 8 C 6.28 g/m*3 8 C 0 km/h
180 12-10-2010 12:00:02 8.4 C 6.28 g/m*3 8.4 C 0 km/h
181 12-10-2010 12:12:02 9 C 6.17 g/m*3 9 C 0 km/h
182 12-10-2010 12:24:02 9.6 C 6.14 g/m*3 9.6 C 0 km/h
183 12-10-2010 12:36:02 10.2 C 6.09 g/m*3 10.2 C 0 km/h
184 12-10-2010 12:48:02 10.6 C 6.15 g/m*3 10.6 C 0 km/h
185 12-10-2010 13:00:02 11.5 C 5.78 g/m*3 11.5 C 0 km/h
186 12-10-2010 13:12:01 12.2 C 5.5 g/m*3 12.2 C 0 km/h
187 12-10-2010 13:24:02 12.7 C 5.79 g/m*3 12.7 C 0 km/h
188 12-10-2010 13:36:02 13 C 5.78 g/m*3 13 C 0 km/h
189 12-10-2010 13:48:02 13.5 C 5.73 g/m*3 13.5 C 0 km/h
190 12-10-2010 14:00:02 14.1 C 5.83 g/m*3 14.1 C 0 km/h
191 12-10-2010 14:12:03 15 C 5.39 g/m*3 15 C 0 km/h
192 12-10-2010 14:24:02 15.4 C 5.65 g/m*3 15.4 C 0 km/h
193 12-10-2010 14:36:02 15.6 C 5.72 g/m*3 15.6 C 0 km/h
194 12-10-2010 14:48:01 16.2 C 5.65 g/m*3 16.2 C 0 km/h
195 12-10-2010 15:00:01 16.4 C 5.58 g/m*3 16.4 C 0 km/h
196 12-10-2010 15:12:02 17 C 5.5 g/m*3 17 C 0 km/h
197 12-10-2010 15:24:01 16.8 C 5.29 g/m*3 16.8 C 0 km/h
198 12-10-2010 15:36:01 17.2 C 5.42 g/m*3 17.2 C 0 km/h
199 12-10-2010 15:48:01 17.3 C 5.3 g/m*3 17.3 C 0 km/h
200 12-10-2010 16:00:01 17.5 C 5.52 g/m*3 17.5 C 0 km/h
Sensor: Nr:Datum:Temp:Abs-Feuchte:Windchill:Wind:
Aussen-T/F 201 12-10-2010 16:12:02 17.8 C 5.31 g/m*3 17.8 C 0 km/h
202 12-10-2010 16:24:02 17.4 C 5.48 g/m*3 17.4 C 0 km/h
203 12-10-2010 16:36:01 17.7 C 5.43 g/m*3 17.7 C 0 km/h
204 12-10-2010 16:48:02 17.9 C 5.34 g/m*3 17.9 C 0 km/h
205 12-10-2010 17:00:02 17.9 C 4.89 g/m*3 17.9 C 0 km/h
206 12-10-2010 17:12:01 17.8 C 4.86 g/m*3 17.8 C 0 km/h
207 12-10-2010 17:24:02 17.4 C 4.45 g/m*3 17.4 C 0 km/h
208 12-10-2010 17:36:01 16.6 C 4.24 g/m*3 16.6 C 0 km/h
209 12-10-2010 17:48:02 16.4 C 4.47 g/m*3 16.4 C 0 km/h
210 12-10-2010 18:00:02 16 C 4.9 g/m*3 16 C 0 km/h
211 12-10-2010 18:12:02 15.4 C 5.39 g/m*3 15.4 C 0 km/h
212 12-10-2010 18:24:02 14.4 C 5.69 g/m*3 14.4 C 0 km/h
213 12-10-2010 18:36:03 13.7 C 5.92 g/m*3 13.7 C 0 km/h
214 12-10-2010 18:48:02 13 C 6.12 g/m*3 13 C 0 km/h
215 12-10-2010 19:00:02 12.3 C 6.3 g/m*3 12.3 C 0 km/h
216 12-10-2010 19:12:02 11.8 C 6.42 g/m*3 11.8 C 0 km/h
217 12-10-2010 19:24:02 11.3 C 6.43 g/m*3 11.3 C 0 km/h
218 12-10-2010 19:36:02 10.9 C 6.56 g/m*3 10.9 C 0 km/h
219 12-10-2010 19:48:02 10.8 C 6.52 g/m*3 10.8 C 0 km/h
220 12-10-2010 20:00:02 10.4 C 6.46 g/m*3 10.4 C 0 km/h
221 12-10-2010 20:12:01 10.1 C 6.43 g/m*3 10.1 C 0 km/h
222 12-10-2010 20:24:02 9.9 C 6.54 g/m*3 9.9 C 0 km/h
223 12-10-2010 20:36:01 9.5 C 6.46 g/m*3 9.5 C 0 km/h
224 12-10-2010 20:48:02 9.3 C 6.47 g/m*3 9.3 C 0 km/h
225 12-10-2010 21:00:02 8.9 C 6.39 g/m*3 8.9 C 0 km/h
Sensor: Nr:Datum:Temp:Abs-Feuchte:Windchill:Wind:
Aussen-T/F 226 12-10-2010 21:12:02 8.6 C 6.27 g/m*3 8.6 C 0 km/h
227 12-10-2010 21:24:02 8.3 C 6.24 g/m*3 8.3 C 0 km/h
228 12-10-2010 21:36:02 8.1 C 6.16 g/m*3 8.1 C 0 km/h
229 12-10-2010 21:48:02 7.9 C 6.24 g/m*3 7.9 C 0 km/h
230 12-10-2010 22:00:02 7.7 C 6.16 g/m*3 7.7 C 0 km/h
231 12-10-2010 22:12:01 7.5 C 6.08 g/m*3 7.5 C 0 km/h
232 12-10-2010 22:25:03 7.6 C 6.2 g/m*3 7.6 C 0 km/h
233 12-10-2010 22:37:03 7.9 C 6.24 g/m*3 7.9 C 0 km/h
234 12-10-2010 22:49:03 8 C 6.04 g/m*3 8 C 0 km/h
235 12-10-2010 23:01:03 7.9 C 6 g/m*3 7.9 C 0 km/h
236 12-10-2010 23:13:03 7.7 C 5.92 g/m*3 7.7 C 0 km/h
237 12-10-2010 23:25:03 7.8 C 6.04 g/m*3 7.8 C 0 km/h
238 12-10-2010 23:37:03 7.8 C 6.04 g/m*3 7.8 C 0 km/h
239 12-10-2010 23:49:03 7.7 C 6 g/m*3 7.7 C 0 km/h
240 13-10-2010 00:01:03 7.7 C 5.92 g/m*3 7.7 C 0 km/h
241 13-10-2010 00:13:03 7.7 C 5.92 g/m*3 7.7 C 0 km/h
242 13-10-2010 00:25:03 7.9 C 5.91 g/m*3 7.9 C 0 km/h
243 13-10-2010 00:37:03 7.4 C 5.81 g/m*3 7.4 C 0 km/h
244 13-10-2010 00:49:03 7.3 C 5.77 g/m*3 7.3 C 0 km/h
245 13-10-2010 01:01:03 7.3 C 5.85 g/m*3 7.3 C 0 km/h
246 13-10-2010 01:13:03 7.3 C 5.85 g/m*3 7.3 C 0 km/h
247 13-10-2010 01:25:04 7 C 5.73 g/m*3 7 C 0 km/h
248 13-10-2010 01:37:04 6.8 C 5.81 g/m*3 6.8 C 0 km/h
249 13-10-2010 01:49:04 6.7 C 5.85 g/m*3 6.7 C 0 km/h
250 13-10-2010 02:01:04 6.9 C 5.93 g/m*3 6.9 C 0 km/h
Sensor: Nr:Datum:Temp:Abs-Feuchte:Windchill:Wind:
Aussen-T/F 251 13-10-2010 02:13:04 6.9 C 5.85 g/m*3 6.9 C 0 km/h
252 13-10-2010 02:25:04 6.8 C 5.81 g/m*3 6.8 C 0 km/h
253 13-10-2010 02:37:04 6.9 C 5.85 g/m*3 6.9 C 0 km/h
254 13-10-2010 02:49:04 6.5 C 5.7 g/m*3 6.5 C 0 km/h
255 13-10-2010 03:01:04 6.4 C 5.74 g/m*3 6.4 C 0 km/h
256 13-10-2010 03:13:04 6.4 C 5.74 g/m*3 6.4 C 0 km/h
257 13-10-2010 03:25:04 6.5 C 5.7 g/m*3 6.5 C 0 km/h
258 13-10-2010 03:37:04 6.5 C 5.7 g/m*3 6.5 C 0 km/h
259 13-10-2010 03:49:04 6.4 C 5.59 g/m*3 6.4 C 0 km/h
260 13-10-2010 04:01:04 6.2 C 5.52 g/m*3 6.2 C 0 km/h
261 13-10-2010 04:13:04 6.1 C 5.55 g/m*3 6.1 C 0 km/h
262 13-10-2010 04:25:04 6.2 C 5.66 g/m*3 6.2 C 0 km/h
263 13-10-2010 04:37:04 6.2 C 5.59 g/m*3 6.2 C 0 km/h
264 13-10-2010 04:49:04 6.3 C 5.63 g/m*3 6.3 C 0 km/h
265 13-10-2010 05:01:04 6.3 C 5.63 g/m*3 6.3 C 0 km/h
266 13-10-2010 05:13:04 6.2 C 5.59 g/m*3 6.2 C 0 km/h
267 13-10-2010 05:25:04 6.1 C 5.55 g/m*3 6.1 C 0 km/h
268 13-10-2010 05:37:05 6 C 5.59 g/m*3 6 C 0 km/h
269 13-10-2010 05:49:05 5.9 C 5.62 g/m*3 5.9 C 0 km/h
270 13-10-2010 06:01:05 6 C 5.66 g/m*3 6 C 0 km/h
271 13-10-2010 06:13:05 6 C 5.59 g/m*3 6 C 0 km/h
272 13-10-2010 06:25:05 5.8 C 5.59 g/m*3 5.8 C 0 km/h
273 13-10-2010 06:37:05 5.8 C 5.59 g/m*3 5.8 C 0 km/h
274 13-10-2010 06:49:02 5.6 C 5.59 g/m*3 5.6 C 0 km/h
275 13-10-2010 07:01:02 5.5 C 5.55 g/m*3 5.5 C 0 km/h
Sensor: Nr:Datum:Temp:Abs-Feuchte:Windchill:Wind:
Aussen-T/F 276 13-10-2010 07:13:02 5.4 C 5.51 g/m*3 5.4 C 0 km/h
277 13-10-2010 07:25:02 5.2 C 5.44 g/m*3 5.2 C 0 km/h
278 13-10-2010 07:37:02 5.4 C 5.58 g/m*3 5.4 C 0 km/h
279 13-10-2010 07:49:01 5.6 C 5.59 g/m*3 5.6 C 0 km/h
280 13-10-2010 08:01:02 5.7 C 5.55 g/m*3 5.7 C 0 km/h
281 13-10-2010 08:13:02 5.6 C 5.51 g/m*3 5.6 C 0 km/h
282 13-10-2010 08:25:02 5.6 C 5.51 g/m*3 5.6 C 0 km/h
283 13-10-2010 08:37:01 5.6 C 5.44 g/m*3 5.6 C 0 km/h
284 13-10-2010 08:49:02 5.6 C 5.44 g/m*3 5.6 C 0 km/h
285 13-10-2010 09:01:02 5.7 C 5.48 g/m*3 5.7 C 0 km/h
286 13-10-2010 09:13:02 5.7 C 5.48 g/m*3 5.7 C 0 km/h
287 13-10-2010 09:25:02 5.8 C 5.44 g/m*3 5.8 C 0 km/h
288 13-10-2010 09:37:03 6 C 5.44 g/m*3 6 C 0 km/h
289 13-10-2010 09:49:02 6.1 C 5.41 g/m*3 6.1 C 0 km/h
290 13-10-2010 10:01:02 6.4 C 5.44 g/m*3 6.4 C 0 km/h
291 13-10-2010 10:13:02 6.6 C 5.36 g/m*3 6.6 C 0 km/h
292 13-10-2010 10:25:01 6.7 C 5.32 g/m*3 6.7 C 0 km/h
293 13-10-2010 10:37:02 6.8 C 5.2 g/m*3 6.8 C 0 km/h
294 13-10-2010 10:49:02 6.8 C 5.2 g/m*3 6.8 C 0 km/h
295 13-10-2010 11:01:02 7 C 5.11 g/m*3 7 C 0 km/h
296 13-10-2010 11:13:02 7 C 5.04 g/m*3 7 C 0 km/h
297 13-10-2010 11:25:02 6.8 C 5.05 g/m*3 6.8 C 0 km/h
298 13-10-2010 11:37:02 7.1 C 5.15 g/m*3 7.1 C 0 km/h
299 13-10-2010 11:49:02 7.3 C 5.06 g/m*3 7.3 C 0 km/h
300 13-10-2010 12:01:02 7.7 C 5.11 g/m*3 7.7 C 0 km/h
Sensor: Nr:Datum:Temp:Abs-Feuchte:Windchill:Wind:
Aussen-T/F 301 13-10-2010 12:13:02 7.9 C 5.01 g/m*3 7.9 C 0 km/h
302 13-10-2010 12:25:02 8 C 5.04 g/m*3 8 C 0 km/h
303 13-10-2010 12:37:02 8.4 C 5.01 g/m*3 8.4 C 0 km/h
304 13-10-2010 12:49:02 8.7 C 5.1 g/m*3 8.7 C 0 km/h
305 13-10-2010 13:01:02 9 C 4.94 g/m*3 9 C 0 km/h
306 13-10-2010 13:13:02 8.8 C 4.87 g/m*3 8.8 C 0 km/h
307 13-10-2010 13:25:02 9 C 4.94 g/m*3 9 C 0 km/h
308 13-10-2010 13:37:02 8.5 C 4.87 g/m*3 8.5 C 0 km/h
309 13-10-2010 13:49:02 8.7 C 4.84 g/m*3 8.7 C 0 km/h
310 13-10-2010 14:01:02 9.6 C 5.13 g/m*3 9.6 C 0 km/h
311 13-10-2010 14:13:02 9.4 C 4.79 g/m*3 9.4 C 0 km/h
312 13-10-2010 14:25:02 9.6 C 4.86 g/m*3 9.6 C 0 km/h
313 13-10-2010 14:37:01 9.7 C 4.98 g/m*3 9.7 C 0 km/h
314 13-10-2010 14:49:02 10.7 C 5.01 g/m*3 10.7 C 0 km/h
315 13-10-2010 15:01:01 11.3 C 5 g/m*3 11.3 C 0 km/h
316 13-10-2010 15:13:01 11.2 C 4.87 g/m*3 11.2 C 0 km/h
317 13-10-2010 15:25:01 11.9 C 5.08 g/m*3 11.9 C 0 km/h
318 13-10-2010 15:37:02 12 C 4.8 g/m*3 12 C 0 km/h
319 13-10-2010 15:49:02 12.5 C 4.95 g/m*3 12.5 C 0 km/h
320 13-10-2010 16:01:02 12.1 C 4.93 g/m*3 12.1 C 0 km/h
321 13-10-2010 16:13:02 11.9 C 4.98 g/m*3 11.9 C 0 km/h
322 13-10-2010 16:25:01 12.1 C 4.93 g/m*3 12.1 C 0 km/h
323 13-10-2010 16:37:02 11.8 C 5.05 g/m*3 11.8 C 0 km/h
324 13-10-2010 16:49:02 12.4 C 5.14 g/m*3 12.4 C 0 km/h
325 13-10-2010 17:01:02 12.3 C 4.99 g/m*3 12.3 C 0 km/h
Sensor: Nr:Datum:Temp:Abs-Feuchte:Windchill:Wind:
Aussen-T/F 326 13-10-2010 17:13:02 12.2 C 5.07 g/m*3 12.2 C 0 km/h
327 13-10-2010 17:25:01 12.5 C 5.39 g/m*3 12.5 C 0 km/h
328 13-10-2010 17:37:02 12.5 C 5.28 g/m*3 12.5 C 0 km/h
329 13-10-2010 17:49:01 12.2 C 5.4 g/m*3 12.2 C 0 km/h
330 13-10-2010 18:01:02 11.6 C 5.4 g/m*3 11.6 C 0 km/h
331 13-10-2010 18:13:02 10.9 C 5.47 g/m*3 10.9 C 0 km/h
332 13-10-2010 18:25:02 9.8 C 5.47 g/m*3 9.8 C 0 km/h
333 13-10-2010 18:37:02 9 C 5.47 g/m*3 9 C 0 km/h
334 13-10-2010 18:49:02 8.4 C 5.6 g/m*3 8.4 C 0 km/h
335 13-10-2010 19:01:01 7.9 C 5.67 g/m*3 7.9 C 0 km/h
336 13-10-2010 19:13:01 7.6 C 5.72 g/m*3 7.6 C 0 km/h
337 13-10-2010 19:25:02 7.4 C 5.73 g/m*3 7.4 C 0 km/h
338 13-10-2010 19:37:01 7.3 C 5.85 g/m*3 7.3 C 0 km/h
339 13-10-2010 19:49:02 7.2 C 5.81 g/m*3 7.2 C 0 km/h
340 13-10-2010 20:01:02 7.3 C 5.85 g/m*3 7.3 C 0 km/h
341 13-10-2010 20:13:02 7 C 5.73 g/m*3 7 C 0 km/h
342 13-10-2010 20:25:02 7 C 5.81 g/m*3 7 C 0 km/h
343 13-10-2010 20:37:03 6.9 C 5.85 g/m*3 6.9 C 0 km/h
344 13-10-2010 20:49:02 6.6 C 5.81 g/m*3 6.6 C 0 km/h
345 13-10-2010 21:01:02 6.3 C 5.77 g/m*3 6.3 C 0 km/h
346 13-10-2010 21:13:02 6 C 5.73 g/m*3 6 C 0 km/h
347 13-10-2010 21:25:01 5.8 C 5.73 g/m*3 5.8 C 0 km/h
348 13-10-2010 21:37:02 5.6 C 5.73 g/m*3 5.6 C 0 km/h
349 13-10-2010 21:49:02 5.4 C 5.65 g/m*3 5.4 C 0 km/h
350 13-10-2010 22:02:03 5.4 C 5.72 g/m*3 5.4 C 0 km/h
Sensor: Nr:Datum:Temp:Abs-Feuchte:Windchill:Wind:
Aussen-T/F 351 13-10-2010 22:14:03 5.3 C 5.75 g/m*3 5.3 C 0 km/h
352 13-10-2010 22:26:03 5.2 C 5.71 g/m*3 5.2 C 0 km/h
353 13-10-2010 22:38:03 5.1 C 5.75 g/m*3 5.1 C 0 km/h
354 13-10-2010 22:50:03 4.8 C 5.7 g/m*3 4.8 C 0 km/h
355 13-10-2010 23:02:03 4.7 C 5.66 g/m*3 4.7 C 0 km/h
356 13-10-2010 23:14:03 4.6 C 5.62 g/m*3 4.6 C 0 km/h
357 13-10-2010 23:26:03 4.6 C 5.62 g/m*3 4.6 C 0 km/h
358 13-10-2010 23:38:03 4.5 C 5.59 g/m*3 4.5 C 0 km/h
359 13-10-2010 23:50:03 4.2 C 5.54 g/m*3 4.2 C 0 km/h

Legende:
   Min
   Max


Maximal/Minimal-Werte vom 11.10.2010 - 13.10.2010

Sensor Min Max Avg
Temp
(Aussen-T/F)
2.6 °C
12-10-2010  07:48:01
21.2 °C
11-10-2010  16:35:01
9.03 °C
Abs-Feuchte
(Aussen-T/F)
3.36 g/m*3
11-10-2010  17:35:01
6.6 g/m*3
11-10-2010  12:59:01
5.4 g/m*3
Windchill
(Aussen-T/F)
2.6 C
12-10-2010  07:48:01
21.2 C
11-10-2010  16:35:01
9 C

Die Daten stammen von einer Davis Vantage Pro 2 Wetter-Station und werden unter Linux mit der Software wview2wettercgi und aufbereitet. Alle Angaben erfolgen ohne Gewähr für ihre Vollständigkeit oder Richtigkeit.
Kontakt: Rainer Krienke krienke@uni-koblenz.de . Meine Webseiten an der Uni Koblenz oder privat.
Version: $Revision: 0.78 $